Etusivu
METAR-TAF:

METAR-TAF

Lentoasemat :

Grand Marais, Minnesota, Yhdysvallat

Leveyspiiri: 47-50N, Pituuspiiri: 090-23W, korkeus merenpinnasta: 186 m

Tämänhetkinen sää

Tämä raportti tehtiin 47 minuuttia sitten, kello 08.56 UTC
Tuuli 6 kn eri suunnista
Lämpötila 6°C
Kosteus 65%
Ilmanpaine 1008 hPa

METAR: KGNA 260856Z AUTO VRB06KT 06/00 A2976 RMK AO1 SLP080 T00610000 50006 $

Aika: 04:43 (09:43 UTC)


TAF: puuttuu

Säähavainnot ja -ennusteet yli 4000 lentoasemalta (METAR- ja TAF-raportit).

Käytössä olevat sääasemat on merkitty karttaan keltaisilla ja punaisilla pisteillä.

Aseta hiiri pisteen päälle nähdäksesi sääaseman nimen.

Klikkaa sitten nähdäksesi säähavainnot ja -ennusteet.

Kartan vaihtaminen: klikkaa mustalla rastilla varustettuja vihreitä pisteitä, niin voit zoomata sisään; viivalla varustettua vihreää pistettä, niin voit zoomata ulos tai vihreitä nuolia, niin pääset viereisille kartoille.


METAR-TAF: